createdAt,value
2017-08-11T00:01:48.106Z,54.50
2017-08-11T00:04:15.676Z,56.70
2017-08-11T00:06:43.278Z,57.13
2017-08-11T00:09:10.973Z,67.03
2017-08-11T00:11:38.586Z,82.97
2017-08-11T00:14:06.272Z,72.70
2017-08-11T00:16:34.091Z,83.77
2017-08-11T00:19:02.032Z,96.23
2017-08-11T00:21:29.627Z,73.30
2017-08-11T00:23:57.410Z,77.83
2017-08-11T00:26:24.996Z,69.00
2017-08-11T00:28:52.578Z,72.83
2017-08-11T00:31:20.286Z,80.23
2017-08-11T00:33:48.025Z,75.90
2017-08-11T00:36:15.717Z,79.37
2017-08-11T00:38:43.330Z,63.70
2017-08-11T00:41:10.916Z,63.83
2017-08-11T00:43:38.488Z,55.10
2017-08-11T00:46:06.249Z,60.50
2017-08-11T00:48:33.948Z,35.00
2017-08-11T00:51:01.582Z,32.63
2017-08-11T00:53:29.199Z,34.50
2017-08-11T00:55:56.784Z,29.10
2017-08-11T00:58:24.432Z,32.33
2017-08-11T01:00:52.056Z,27.50
2017-08-11T01:03:19.941Z,25.63
2017-08-11T01:05:48.476Z,21.23
2017-08-11T01:08:16.344Z,34.43
2017-08-11T01:10:43.951Z,23.10
2017-08-11T01:13:12.314Z,19.33
2017-08-11T01:15:39.992Z,32.80
2017-08-11T01:18:08.385Z,30.83
2017-08-11T01:20:36.744Z,25.17
2017-08-11T01:23:04.466Z,25.93
2017-08-11T01:25:32.108Z,23.33
2017-08-11T01:27:59.851Z,23.90
2017-08-11T01:30:27.491Z,26.03
2017-08-11T01:32:55.103Z,23.73
2017-08-11T01:35:22.746Z,22.50
2017-08-11T01:37:50.388Z,21.07
2017-08-11T01:40:18.754Z,30.93
2017-08-11T01:42:46.386Z,20.57
2017-08-11T01:45:14.420Z,29.50
2017-08-11T01:47:42.062Z,23.90
2017-08-11T01:50:10.429Z,28.57
2017-08-11T01:52:38.193Z,27.57
2017-08-11T01:55:05.807Z,27.97
2017-08-11T01:57:33.431Z,32.50
2017-08-11T02:00:01.871Z,38.80
2017-08-11T02:02:29.501Z,29.43
2017-08-11T02:04:57.108Z,26.93
2017-08-11T02:07:24.744Z,34.13
2017-08-11T02:09:52.400Z,29.60
2017-08-11T02:12:20.018Z,36.43
2017-08-11T02:14:47.647Z,29.20
2017-08-11T02:17:15.311Z,27.67
2017-08-11T02:19:42.961Z,51.30
2017-08-11T02:22:10.923Z,28.43
2017-08-11T02:24:38.539Z,39.03
2017-08-11T02:27:06.127Z,28.27
2017-08-11T02:29:33.792Z,33.70
2017-08-11T02:32:01.388Z,39.03
2017-08-11T02:34:29.042Z,33.80
2017-08-11T02:36:56.679Z,33.90
2017-08-11T02:39:24.279Z,32.40
2017-08-11T02:41:51.943Z,29.87
2017-08-11T02:44:19.766Z,38.77
2017-08-11T02:46:47.383Z,31.70
2017-08-11T02:49:15.084Z,34.30
2017-08-11T02:51:42.730Z,35.20
2017-08-11T02:54:10.310Z,32.73
2017-08-11T02:56:37.974Z,34.13
2017-08-11T02:59:05.637Z,36.53
2017-08-11T03:01:33.245Z,40.13
2017-08-11T03:04:01.615Z,39.43
2017-08-11T03:06:29.443Z,38.10
2017-08-11T03:08:57.069Z,34.03
2017-08-11T03:11:24.666Z,39.83
2017-08-11T03:13:52.811Z,39.90
2017-08-11T03:16:20.525Z,37.90
2017-08-11T03:18:48.100Z,50.83
2017-08-11T03:21:15.752Z,59.93
2017-08-11T03:23:43.539Z,46.40
2017-08-11T03:26:11.124Z,47.23
2017-08-11T03:28:38.893Z,45.57
2017-08-11T03:31:06.543Z,45.97
2017-08-11T03:33:34.134Z,45.93
2017-08-11T03:36:01.759Z,38.00
2017-08-11T03:38:29.358Z,45.30
2017-08-11T03:40:57.019Z,43.93
2017-08-11T03:43:24.662Z,42.87
2017-08-11T03:45:52.274Z,41.50
2017-08-11T03:48:19.932Z,42.23
2017-08-11T03:50:47.555Z,43.93
2017-08-11T03:53:15.224Z,53.97
2017-08-11T03:55:42.996Z,55.73
2017-08-11T03:58:10.686Z,61.73
2017-08-11T04:00:38.313Z,54.17
2017-08-11T04:03:05.894Z,52.40
2017-08-11T04:05:33.656Z,54.47
2017-08-11T04:08:01.236Z,50.90
2017-08-11T04:10:29.680Z,46.17
2017-08-11T04:12:57.747Z,50.17
2017-08-11T04:15:25.347Z,51.30
2017-08-11T04:17:52.976Z,49.60
2017-08-11T04:20:20.987Z,42.53
2017-08-11T04:22:49.412Z,48.10
2017-08-11T04:25:17.011Z,45.93
2017-08-11T04:27:44.664Z,48.17
2017-08-11T04:30:12.310Z,46.70
2017-08-11T04:32:39.977Z,45.70
2017-08-11T04:35:07.593Z,42.90
2017-08-11T04:37:35.183Z,46.43
2017-08-11T04:40:02.834Z,49.70
2017-08-11T04:42:30.512Z,44.00
2017-08-11T04:44:58.114Z,45.07
2017-08-11T04:47:25.762Z,54.87
2017-08-11T04:49:53.414Z,55.10
2017-08-11T04:52:20.989Z,51.77
2017-08-11T04:54:48.576Z,50.33
2017-08-11T04:57:16.632Z,39.83
2017-08-11T04:59:44.265Z,42.87
2017-08-11T05:02:15.541Z,44.57
2017-08-11T05:04:43.163Z,46.80
2017-08-11T05:07:10.796Z,42.60
2017-08-11T05:09:38.646Z,42.67
2017-08-11T05:12:06.221Z,47.33
2017-08-11T05:14:33.807Z,49.30
2017-08-11T05:17:01.509Z,37.07
2017-08-11T05:19:29.090Z,41.20
2017-08-11T05:21:56.732Z,37.70
2017-08-11T05:24:25.237Z,36.60
2017-08-11T05:26:53.617Z,32.33
2017-08-11T05:29:21.227Z,35.73
2017-08-11T05:31:48.862Z,37.47
2017-08-11T05:34:16.540Z,39.53
2017-08-11T05:36:44.118Z,33.67
2017-08-11T05:39:11.743Z,35.13
2017-08-11T05:41:39.447Z,33.87
2017-08-11T05:44:07.086Z,32.43
2017-08-11T05:46:34.710Z,36.27
2017-08-11T05:49:02.706Z,29.17
2017-08-11T05:51:30.335Z,38.63
2017-08-11T05:53:58.006Z,30.43
2017-08-11T05:56:25.665Z,35.47
2017-08-11T05:58:53.302Z,33.60
2017-08-11T06:01:20.939Z,32.20
2017-08-11T06:03:48.547Z,34.40
2017-08-11T06:06:16.187Z,29.40
2017-08-11T06:08:43.797Z,27.23
2017-08-11T06:11:11.393Z,26.80
2017-08-11T06:13:39.070Z,33.03
2017-08-11T06:16:06.727Z,29.93
2017-08-11T06:18:34.315Z,31.67
2017-08-11T06:21:02.323Z,27.00
2017-08-11T06:23:30.001Z,31.07
2017-08-11T06:25:57.669Z,27.47
2017-08-11T06:28:25.257Z,30.10
2017-08-11T06:30:54.093Z,35.97
2017-08-11T06:33:22.617Z,33.00
2017-08-11T06:35:50.637Z,31.07
2017-08-11T06:38:18.888Z,36.13
2017-08-11T06:40:46.531Z,32.47
2017-08-11T06:43:14.415Z,38.93
2017-08-11T06:45:44.729Z,29.83
2017-08-11T06:48:12.372Z,35.93
2017-08-11T06:50:40.356Z,34.43
2017-08-11T06:53:08.008Z,35.70
2017-08-11T06:55:35.694Z,40.73
2017-08-11T06:58:03.265Z,45.87
2017-08-11T07:00:31.004Z,38.27
2017-08-11T07:02:58.697Z,36.77
2017-08-11T07:05:26.277Z,38.07
2017-08-11T07:07:53.915Z,38.60
2017-08-11T07:10:21.910Z,41.70
2017-08-11T07:12:49.527Z,24.70
2017-08-11T07:15:17.910Z,26.07
2017-08-11T07:20:19.504Z,18.80
2017-08-11T07:22:47.115Z,25.97
2017-08-11T07:25:14.719Z,25.23
2017-08-11T07:27:42.457Z,21.70
2017-08-11T07:30:10.806Z,32.63
2017-08-11T07:32:38.395Z,26.80
2017-08-11T07:35:06.940Z,25.23
2017-08-11T07:37:34.601Z,19.60
2017-08-11T07:40:03.137Z,19.20
2017-08-11T07:42:30.775Z,18.77
2017-08-11T07:44:58.436Z,19.23
2017-08-11T07:47:26.103Z,19.73
2017-08-11T07:49:54.519Z,20.43
2017-08-11T07:52:22.119Z,26.60
2017-08-11T07:54:49.781Z,21.80
2017-08-11T07:57:18.335Z,16.50
2017-08-11T07:59:45.934Z,19.10
2017-08-11T08:02:13.531Z,17.73
2017-08-11T08:04:41.242Z,17.00
2017-08-11T08:07:08.825Z,22.37
2017-08-11T08:09:37.177Z,24.13
2017-08-11T08:12:04.807Z,22.57
2017-08-11T08:14:32.530Z,18.37
2017-08-11T08:17:00.894Z,21.80
2017-08-11T08:19:28.588Z,27.10
2017-08-11T08:21:56.178Z,22.33
2017-08-11T08:24:23.752Z,15.23
2017-08-11T08:26:51.357Z,21.10
2017-08-11T08:29:19.755Z,18.27
2017-08-11T08:31:47.361Z,16.73
2017-08-11T08:34:14.974Z,13.90
2017-08-11T08:36:42.835Z,18.30
2017-08-11T08:39:10.494Z,15.73
2017-08-11T08:41:38.874Z,20.57
2017-08-11T08:44:06.529Z,14.07
2017-08-11T08:46:34.913Z,22.30
2017-08-11T08:49:02.637Z,11.00
2017-08-11T08:51:30.298Z,14.87
2017-08-11T08:53:57.870Z,11.03
2017-08-11T08:56:25.502Z,11.87
2017-08-11T08:58:53.089Z,11.77
2017-08-11T09:01:20.679Z,17.80
2017-08-11T09:03:49.102Z,15.27
2017-08-11T09:06:16.688Z,17.40
2017-08-11T09:08:44.268Z,20.00
2017-08-11T09:11:12.644Z,15.93
2017-08-11T09:13:41.051Z,12.07
2017-08-11T09:16:08.620Z,10.53
2017-08-11T09:18:36.260Z,13.30
2017-08-11T09:21:04.619Z,18.10
2017-08-11T09:23:33.041Z,11.83
2017-08-11T09:26:12.526Z,10.17
2017-08-11T09:28:51.959Z,11.63
2017-08-11T09:31:31.626Z,10.97
2017-08-11T09:34:11.959Z,20.53
2017-08-11T09:36:40.890Z,9.27
2017-08-11T09:39:08.686Z,9.17
2017-08-11T09:41:36.257Z,9.67
2017-08-11T09:44:03.876Z,15.10
2017-08-11T09:46:31.784Z,13.67
2017-08-11T09:48:59.544Z,13.03
2017-08-11T09:51:27.171Z,8.70
2017-08-11T09:53:54.853Z,15.03
2017-08-11T09:56:22.485Z,15.60
2017-08-11T09:58:51.096Z,10.93
2017-08-11T10:01:18.681Z,10.90
2017-08-11T10:03:46.472Z,13.63
2017-08-11T10:06:14.211Z,11.53
2017-08-11T10:08:41.808Z,10.10
2017-08-11T10:11:10.177Z,8.77
2017-08-11T10:13:37.894Z,7.63
2017-08-11T10:16:05.481Z,13.23
2017-08-11T10:18:33.045Z,8.13
2017-08-11T10:21:00.746Z,9.40
2017-08-11T10:23:29.152Z,5.83
2017-08-11T10:25:56.744Z,11.37
2017-08-11T10:28:24.358Z,10.00
2017-08-11T10:30:51.994Z,20.90
2017-08-11T10:33:20.347Z,12.23
2017-08-11T10:35:47.960Z,10.50
2017-08-11T10:38:15.598Z,14.20
2017-08-11T10:40:43.996Z,10.33
2017-08-11T10:43:11.616Z,19.17
2017-08-11T10:45:39.206Z,10.43
2017-08-11T10:48:07.631Z,12.90
2017-08-11T10:50:35.243Z,7.77
2017-08-11T10:53:03.582Z,29.40
2017-08-11T10:55:31.220Z,14.50
2017-08-11T10:57:58.921Z,16.13
2017-08-11T11:00:26.511Z,17.00
2017-08-11T11:02:54.225Z,10.50
2017-08-11T11:05:21.851Z,8.70
2017-08-11T11:07:49.448Z,13.13
2017-08-11T11:10:17.020Z,15.90
2017-08-11T11:12:44.737Z,14.27
2017-08-11T11:15:12.903Z,13.90
2017-08-11T11:17:41.707Z,13.00
2017-08-11T11:20:09.954Z,9.63
2017-08-11T11:22:37.803Z,9.23
2017-08-11T11:25:05.760Z,10.67
2017-08-11T11:27:33.393Z,14.40
2017-08-11T11:30:00.973Z,15.23
2017-08-11T11:32:28.621Z,8.40
2017-08-11T11:34:56.380Z,8.77
2017-08-11T11:37:24.026Z,9.60
2017-08-11T11:39:51.655Z,15.50
2017-08-11T11:42:20.147Z,14.27
2017-08-11T11:44:47.731Z,12.07
2017-08-11T11:47:15.313Z,9.40
2017-08-11T11:49:43.086Z,18.23
2017-08-11T11:52:10.761Z,9.53
2017-08-11T11:54:38.367Z,11.50
2017-08-11T11:57:06.028Z,10.37
2017-08-11T11:59:33.602Z,7.90
2017-08-11T12:02:01.197Z,9.80
2017-08-11T12:04:29.002Z,10.27
2017-08-11T12:06:56.679Z,13.20
2017-08-11T12:09:24.327Z,9.60
2017-08-11T12:11:52.081Z,9.30
2017-08-11T12:14:20.536Z,8.33
2017-08-11T12:16:48.147Z,6.40
2017-08-11T12:19:15.809Z,7.50
2017-08-11T12:21:43.524Z,8.37
2017-08-11T12:24:11.246Z,7.03
2017-08-11T12:26:38.970Z,13.43
2017-08-11T12:29:06.600Z,8.77
2017-08-11T12:31:34.286Z,12.07
2017-08-11T12:34:02.991Z,12.30
2017-08-11T12:36:31.215Z,15.37
2017-08-11T12:38:58.875Z,10.70
2017-08-11T12:41:26.660Z,11.33
2017-08-11T12:43:54.306Z,11.40
2017-08-11T12:46:21.887Z,8.87
2017-08-11T12:48:49.503Z,9.80
2017-08-11T12:51:17.107Z,16.93
2017-08-11T12:53:44.785Z,9.13
2017-08-11T12:56:12.512Z,10.97
2017-08-11T12:58:40.152Z,8.63
2017-08-11T13:01:07.787Z,10.90
2017-08-11T13:03:35.448Z,8.63
2017-08-11T13:06:03.066Z,10.10
2017-08-11T13:08:30.663Z,13.23
2017-08-11T13:10:59.036Z,9.90
2017-08-11T13:13:27.455Z,9.37
2017-08-11T13:15:55.100Z,14.37
2017-08-11T13:18:22.788Z,11.73
2017-08-11T13:20:50.378Z,9.53
2017-08-11T13:23:18.012Z,9.27
2017-08-11T13:25:45.642Z,8.63
2017-08-11T13:28:14.224Z,12.80
2017-08-11T13:30:41.858Z,12.83
2017-08-11T13:33:10.364Z,10.40
2017-08-11T13:35:37.999Z,9.90
2017-08-11T13:38:06.361Z,8.87
2017-08-11T13:40:34.372Z,8.90
2017-08-11T13:43:01.968Z,7.60
2017-08-11T13:45:29.562Z,10.03
2017-08-11T13:47:57.185Z,10.07
2017-08-11T13:50:24.853Z,9.60
2017-08-11T13:52:52.511Z,9.80
2017-08-11T13:55:20.118Z,16.00
2017-08-11T13:57:48.457Z,7.63
2017-08-11T14:00:16.095Z,10.30
2017-08-11T14:02:43.701Z,8.67
2017-08-11T14:05:11.301Z,12.83
2017-08-11T14:07:38.967Z,6.83
2017-08-11T14:10:06.947Z,13.00
2017-08-11T14:12:34.555Z,10.30
2017-08-11T14:15:04.112Z,11.40
2017-08-11T14:17:31.933Z,9.07
2017-08-11T14:19:59.632Z,12.20
2017-08-11T14:22:28.190Z,12.57
2017-08-11T14:24:56.577Z,10.47
2017-08-11T14:27:24.998Z,8.30
2017-08-11T14:29:52.709Z,11.47
2017-08-11T14:32:20.347Z,13.13
2017-08-11T14:34:47.966Z,10.27
2017-08-11T14:37:15.735Z,22.97
2017-08-11T14:39:43.380Z,9.60
2017-08-11T14:42:11.995Z,8.53
2017-08-11T14:44:40.441Z,7.33
2017-08-11T14:47:09.183Z,10.13
2017-08-11T14:49:36.857Z,9.40
2017-08-11T14:52:04.448Z,6.50
2017-08-11T14:54:32.096Z,8.53
2017-08-11T14:57:00.501Z,8.63
2017-08-11T14:59:28.159Z,9.57
2017-08-11T15:01:55.769Z,8.43
2017-08-11T15:04:23.408Z,13.63
2017-08-11T15:06:51.176Z,13.90
2017-08-11T15:09:18.777Z,9.20
2017-08-11T15:11:46.359Z,8.00
2017-08-11T15:14:14.023Z,9.37
2017-08-11T15:16:41.636Z,5.47
2017-08-11T15:19:09.220Z,7.23
2017-08-11T15:21:36.923Z,13.10
2017-08-11T15:24:04.521Z,8.93
2017-08-11T15:26:32.247Z,8.70
2017-08-11T15:28:59.855Z,14.63
2017-08-11T15:31:27.486Z,15.67
2017-08-11T15:33:55.071Z,14.67
2017-08-11T15:36:22.713Z,10.03
2017-08-11T15:38:50.420Z,15.13
2017-08-11T15:41:18.850Z,16.47
2017-08-11T15:43:46.439Z,13.10
2017-08-11T15:46:14.088Z,14.60
2017-08-11T15:48:41.666Z,13.83
2017-08-11T15:51:09.281Z,10.63
2017-08-11T15:53:36.954Z,13.00
2017-08-11T15:56:04.639Z,16.17
2017-08-11T15:58:32.214Z,13.37
2017-08-11T16:00:59.839Z,15.87
2017-08-11T16:03:28.078Z,18.00
2017-08-11T16:05:55.708Z,22.33
2017-08-11T16:08:23.338Z,23.87
2017-08-11T16:10:51.968Z,21.20
2017-08-11T16:13:20.363Z,13.07
2017-08-11T16:15:48.957Z,9.43
2017-08-11T16:18:16.591Z,9.47
2017-08-11T16:20:44.206Z,11.10
2017-08-11T16:23:11.874Z,15.90
2017-08-11T16:25:39.542Z,13.40
2017-08-11T16:28:07.116Z,10.40
2017-08-11T16:30:35.023Z,10.57
2017-08-11T16:33:02.678Z,9.90
2017-08-11T16:35:31.032Z,10.20
2017-08-11T16:37:58.638Z,8.70
2017-08-11T16:40:26.465Z,11.20
2017-08-11T16:42:54.053Z,10.80
2017-08-11T16:45:21.679Z,12.37
2017-08-11T16:47:49.363Z,10.10
2017-08-11T16:50:17.789Z,7.83
2017-08-11T16:52:45.422Z,10.13
2017-08-11T16:55:13.015Z,12.53
2017-08-11T16:57:40.633Z,9.40
2017-08-11T17:00:09.004Z,11.23
2017-08-11T17:02:37.363Z,22.77
2017-08-11T17:05:04.959Z,22.67
2017-08-11T17:07:32.709Z,8.73
2017-08-11T17:10:01.162Z,12.93
2017-08-11T17:12:28.798Z,13.73
2017-08-11T17:14:56.571Z,13.43
2017-08-11T17:17:24.243Z,9.57
2017-08-11T17:19:51.936Z,9.57
2017-08-11T17:22:20.315Z,14.93
2017-08-11T17:24:48.846Z,14.00
2017-08-11T17:27:16.516Z,14.70
2017-08-11T17:29:44.184Z,17.73
2017-08-11T17:32:11.771Z,9.57
2017-08-11T17:34:39.453Z,10.30
2017-08-11T17:37:07.087Z,14.90
2017-08-11T17:39:34.661Z,9.80
2017-08-11T17:42:03.054Z,12.73
2017-08-11T17:44:30.678Z,17.47
2017-08-11T17:46:58.315Z,12.33
2017-08-11T17:49:25.898Z,11.00
2017-08-11T17:51:53.643Z,13.17
2017-08-11T17:54:21.219Z,16.93
2017-08-11T17:56:49.009Z,8.63
2017-08-11T17:59:17.486Z,13.83
2017-08-11T18:01:45.131Z,18.70
2017-08-11T18:04:12.717Z,15.10
2017-08-11T18:06:41.095Z,11.13
2017-08-11T18:09:09.460Z,13.63
2017-08-11T18:11:37.088Z,13.23
2017-08-11T18:14:04.729Z,20.50
2017-08-11T18:16:32.382Z,14.33
2017-08-11T18:19:00.052Z,12.23
2017-08-11T18:21:27.689Z,23.77
2017-08-11T18:23:56.031Z,10.90
2017-08-11T18:26:23.613Z,12.57
2017-08-11T18:28:51.214Z,13.17
2017-08-11T18:31:18.797Z,12.50
2017-08-11T18:33:46.417Z,13.03
2017-08-11T18:36:14.039Z,17.40
2017-08-11T18:38:41.628Z,17.37
2017-08-11T18:41:09.989Z,15.33
2017-08-11T18:43:37.621Z,16.80
2017-08-11T18:46:05.215Z,11.27
2017-08-11T18:48:32.797Z,15.13
2017-08-11T18:51:00.435Z,13.13
2017-08-11T18:53:28.056Z,18.30
2017-08-11T18:55:55.683Z,13.57
2017-08-11T18:58:23.378Z,19.93
2017-08-11T19:00:50.954Z,10.57
2017-08-11T19:03:18.536Z,18.03
2017-08-11T19:05:46.167Z,16.07
2017-08-11T19:08:13.871Z,19.13
2017-08-11T19:10:41.527Z,21.97
2017-08-11T19:13:09.140Z,18.80
2017-08-11T19:15:36.799Z,15.07
2017-08-11T19:18:04.372Z,16.30
2017-08-11T19:20:32.024Z,11.53
2017-08-11T19:22:59.688Z,26.83
2017-08-11T19:25:27.314Z,17.13
2017-08-11T19:27:54.924Z,23.73
2017-08-11T19:30:22.508Z,14.10
2017-08-11T19:32:50.137Z,17.27
2017-08-11T19:35:17.754Z,12.13
2017-08-11T19:37:45.417Z,14.47
2017-08-11T19:40:13.069Z,17.97
2017-08-11T19:42:41.506Z,12.27
2017-08-11T19:45:09.096Z,15.70
2017-08-11T19:47:36.673Z,10.23
2017-08-11T19:50:05.087Z,9.23
2017-08-11T19:52:32.766Z,13.13
2017-08-11T19:55:00.337Z,6.97
2017-08-11T19:57:28.022Z,11.73
2017-08-11T19:59:55.657Z,12.67
2017-08-11T20:02:23.244Z,12.63
2017-08-11T20:04:51.627Z,11.93
2017-08-11T20:07:19.231Z,11.07
2017-08-11T20:09:46.874Z,11.93
2017-08-11T20:12:14.527Z,10.43
2017-08-11T20:14:43.897Z,20.00
2017-08-11T20:17:11.590Z,5.63
2017-08-11T20:19:39.332Z,11.50
2017-08-11T20:22:07.829Z,8.03
2017-08-11T20:24:35.443Z,9.90
2017-08-11T20:27:03.185Z,19.20
2017-08-11T20:29:30.755Z,8.87
2017-08-11T20:31:58.423Z,4.17
2017-08-11T20:34:26.160Z,15.60
2017-08-11T20:36:53.815Z,10.93
2017-08-11T20:39:21.434Z,13.60
2017-08-11T20:41:49.887Z,11.23
2017-08-11T20:44:17.620Z,9.10
2017-08-11T20:46:45.235Z,11.50
2017-08-11T20:49:12.858Z,6.10
2017-08-11T20:51:40.458Z,13.87
2017-08-11T20:54:08.133Z,10.80
2017-08-11T20:56:35.753Z,10.73
2017-08-11T20:59:03.419Z,9.00
2017-08-11T21:01:31.029Z,12.37
2017-08-11T21:03:58.663Z,15.33
2017-08-11T21:06:26.266Z,9.33
2017-08-11T21:08:53.851Z,8.53
2017-08-11T21:11:21.467Z,20.73
2017-08-11T21:13:49.053Z,7.33
2017-08-11T21:16:16.707Z,14.30
2017-08-11T21:18:44.328Z,12.90
2017-08-11T21:21:12.011Z,10.70
2017-08-11T21:23:39.640Z,7.57
2017-08-11T21:26:08.163Z,9.10
2017-08-11T21:28:35.772Z,14.63
2017-08-11T21:31:03.365Z,16.53
2017-08-11T21:33:30.992Z,14.97
2017-08-11T21:35:58.649Z,10.80
2017-08-11T21:38:26.226Z,16.83
2017-08-11T21:40:53.930Z,8.13
2017-08-11T21:43:22.360Z,8.30
2017-08-11T21:45:50.925Z,9.10
2017-08-11T21:48:18.603Z,11.87
2017-08-11T21:50:46.261Z,11.63
2017-08-11T21:53:13.842Z,10.37
2017-08-11T21:55:41.474Z,9.03
2017-08-11T21:58:09.199Z,7.30
2017-08-11T22:00:36.837Z,9.60
2017-08-11T22:03:04.501Z,10.53
2017-08-11T22:05:32.132Z,8.77
2017-08-11T22:07:59.703Z,10.03
2017-08-11T22:10:27.321Z,16.03
2017-08-11T22:12:55.957Z,13.07
2017-08-11T22:15:23.574Z,9.70
2017-08-11T22:17:51.285Z,12.43
2017-08-11T22:20:18.884Z,8.00
2017-08-11T22:22:47.244Z,9.90
2017-08-11T22:25:14.954Z,10.10
2017-08-11T22:27:42.533Z,7.53
2017-08-11T22:30:10.109Z,7.13
2017-08-11T22:32:37.805Z,7.77
2017-08-11T22:35:06.231Z,9.70
2017-08-11T22:37:33.890Z,14.23
2017-08-11T22:40:01.494Z,7.77
2017-08-11T22:42:29.155Z,10.43
2017-08-11T22:44:56.743Z,8.23
2017-08-11T22:47:24.349Z,18.20
2017-08-11T22:49:52.100Z,6.70
2017-08-11T22:52:19.775Z,9.20
2017-08-11T22:54:47.390Z,9.87
2017-08-11T22:57:15.049Z,9.33
2017-08-11T22:59:42.688Z,8.03
2017-08-11T23:02:11.078Z,15.23
2017-08-11T23:04:38.660Z,10.80
2017-08-11T23:07:06.418Z,7.77
2017-08-11T23:09:34.025Z,6.90
2017-08-11T23:12:01.619Z,16.40
2017-08-11T23:14:29.241Z,13.33
2017-08-11T23:16:56.862Z,8.80
2017-08-11T23:19:24.433Z,9.97
2017-08-11T23:21:52.043Z,9.33
2017-08-11T23:24:19.712Z,10.17
2017-08-11T23:26:48.072Z,4.93
2017-08-11T23:29:15.654Z,9.37
2017-08-11T23:31:43.300Z,7.17
2017-08-11T23:34:10.891Z,5.67
2017-08-11T23:36:39.312Z,8.87
2017-08-11T23:39:06.944Z,9.47
2017-08-11T23:41:34.556Z,7.23
2017-08-11T23:44:02.166Z,14.30
2017-08-11T23:46:30.127Z,14.33
2017-08-11T23:48:57.718Z,7.97
2017-08-11T23:51:25.298Z,11.87
2017-08-11T23:53:52.904Z,9.00
2017-08-11T23:56:21.315Z,9.57
2017-08-11T23:58:48.953Z,9.10
